Terminal Aerodrome Forecast
Issued by NWS Wilmington, OH

Current Version | Previous Version | Graphics & Text | Print | Product List | Glossary On
Versions: 1 2 3 4 5 6 7 8 9 10 11 12 13 14 15 16 17 18 19 20 21 22 23 24
000
FTUS41 KILN 280537
TAFDAY
TAF
KDAY 280537Z 2806/2906 VRB04KT P6SM SCT030 OVC100
      TEMPO 2806/2810 4SM BR
     FM281000 02006KT 4SM BR SCT006 BKN100
     FM281200 03009KT P6SM SCT015 BKN040
     FM282000 01013G20KT P6SM BKN040
     FM290100 02011KT P6SM SCT010=

USA.gov is the U.S. government's official web portal to all federal, state and local government web resources and services.